sensor_id;sensor_type;location;lat;lon;timestamp;pressure;altitude;pressure_sealevel;temperature;humidity
64668;BME280;51077;42.716;23.344;2023-05-19T00:00:34;95607.31;;;13.78;66.59
64668;BME280;51077;42.716;23.344;2023-05-19T00:03:02;95603.09;;;13.77;66.49
64668;BME280;51077;42.716;23.344;2023-05-19T00:05:27;95592.56;;;13.75;66.54
64668;BME280;51077;42.716;23.344;2023-05-19T00:07:58;95598.84;;;13.76;66.67
64668;BME280;51077;42.716;23.344;2023-05-19T00:10:25;95592.56;;;13.75;66.58
64668;BME280;51077;42.716;23.344;2023-05-19T00:12:56;95587.56;;;13.74;66.85
64668;BME280;51077;42.716;23.344;2023-05-19T00:15:21;95593.09;;;13.74;66.67
64668;BME280;51077;42.716;23.344;2023-05-19T00:17:47;95590.88;;;13.72;66.70
64668;BME280;51077;42.716;23.344;2023-05-19T00:20:12;95588.13;;;13.72;66.61
64668;BME280;51077;42.716;23.344;2023-05-19T00:22:38;95586.63;;;13.71;66.63
64668;BME280;51077;42.716;23.344;2023-05-19T00:25:04;95583.09;;;13.71;66.79
64668;BME280;51077;42.716;23.344;2023-05-19T00:27:30;95588.63;;;13.71;66.82
64668;BME280;51077;42.716;23.344;2023-05-19T00:29:55;95584.38;;;13.70;66.87
64668;BME280;51077;42.716;23.344;2023-05-19T00:32:21;95581.63;;;13.70;66.86
64668;BME280;51077;42.716;23.344;2023-05-19T00:34:46;95584.69;;;13.66;67.05
64668;BME280;51077;42.716;23.344;2023-05-19T00:37:12;95578.66;;;13.68;66.84
64668;BME280;51077;42.716;23.344;2023-05-19T00:39:38;95572.91;;;13.66;66.98
64668;BME280;51077;42.716;23.344;2023-05-19T00:42:03;95570.69;;;13.64;66.98
64668;BME280;51077;42.716;23.344;2023-05-19T00:44:30;95575.66;;;13.66;66.96
64668;BME280;51077;42.716;23.344;2023-05-19T00:46:56;95570.16;;;13.66;67.02
64668;BME280;51077;42.716;23.344;2023-05-19T00:49:22;95576.19;;;13.64;67.08
64668;BME280;51077;42.716;23.344;2023-05-19T00:51:47;95575.44;;;13.64;67.09
64668;BME280;51077;42.716;23.344;2023-05-19T00:54:14;95584.75;;;13.61;67.17
64668;BME280;51077;42.716;23.344;2023-05-19T00:56:40;95572.75;;;13.58;67.14
64668;BME280;51077;42.716;23.344;2023-05-19T00:59:06;95578.06;;;13.56;67.12
64668;BME280;51077;42.716;23.344;2023-05-19T01:01:32;95576.34;;;13.53;67.44
64668;BME280;51077;42.716;23.344;2023-05-19T01:03:58;95569.88;;;13.50;67.33
64668;BME280;51077;42.716;23.344;2023-05-19T01:06:24;95561.63;;;13.50;67.24
64668;BME280;51077;42.716;23.344;2023-05-19T01:08:50;95569.44;;;13.46;67.36
64668;BME280;51077;42.716;23.344;2023-05-19T01:11:15;95578.22;;;13.45;67.47
64668;BME280;51077;42.716;23.344;2023-05-19T01:13:42;95575.25;;;13.43;67.47
64668;BME280;51077;42.716;23.344;2023-05-19T01:16:23;95579.59;;;13.38;67.41
64668;BME280;51077;42.716;23.344;2023-05-19T01:19:26;95581.88;;;13.34;67.84
64668;BME280;51077;42.716;23.344;2023-05-19T01:22:22;95572.44;;;13.29;67.84
64668;BME280;51077;42.716;23.344;2023-05-19T01:30:39;95573.03;;;13.22;68.18
64668;BME280;51077;42.716;23.344;2023-05-19T01:33:07;95576.28;;;13.21;68.12
64668;BME280;51077;42.716;23.344;2023-05-19T01:35:35;95581.06;;;13.20;67.99
64668;BME280;51077;42.716;23.344;2023-05-19T01:38:02;95590.34;;;13.17;68.12
64668;BME280;51077;42.716;23.344;2023-05-19T01:40:28;95584.84;;;13.17;68.08
64668;BME280;51077;42.716;23.344;2023-05-19T01:42:56;95582.09;;;13.17;68.15
64668;BME280;51077;42.716;23.344;2023-05-19T01:45:24;95579.13;;;13.15;68.18
64668;BME280;51077;42.716;23.344;2023-05-19T01:47:53;95587.88;;;13.14;68.14
64668;BME280;51077;42.716;23.344;2023-05-19T01:50:19;95582.91;;;13.12;68.26
64668;BME280;51077;42.716;23.344;2023-05-19T01:52:45;95587.22;;;13.07;68.27
64668;BME280;51077;42.716;23.344;2023-05-19T01:55:11;95585.75;;;13.06;68.30
64668;BME280;51077;42.716;23.344;2023-05-19T01:57:59;95584.22;;;13.05;68.45
64668;BME280;51077;42.716;23.344;2023-05-19T02:03:32;95574.78;;;13.01;68.53
64668;BME280;51077;42.716;23.344;2023-05-19T02:06:17;95581.34;;;12.98;68.59
64668;BME280;51077;42.716;23.344;2023-05-19T02:11:35;95588.63;;;12.95;68.68
64668;BME280;51077;42.716;23.344;2023-05-19T02:14:17;95587.16;;;12.94;68.54
64668;BME280;51077;42.716;23.344;2023-05-19T02:16:46;95591.66;;;12.92;68.84
64668;BME280;51077;42.716;23.344;2023-05-19T02:21:50;95590.72;;;12.89;68.71
64668;BME280;51077;42.716;23.344;2023-05-19T02:24:16;95581.72;;;12.89;68.80
64668;BME280;51077;42.716;23.344;2023-05-19T02:26:42;95585.22;;;12.89;68.67
64668;BME280;51077;42.716;23.344;2023-05-19T02:29:08;95583.69;;;12.88;68.76
64668;BME280;51077;42.716;23.344;2023-05-19T02:31:33;95589.00;;;12.86;68.79
64668;BME280;51077;42.716;23.344;2023-05-19T02:33:58;95580.19;;;12.88;68.60
64668;BME280;51077;42.716;23.344;2023-05-19T02:36:24;95581.47;;;12.87;68.46
64668;BME280;51077;42.716;23.344;2023-05-19T02:38:50;95584.75;;;12.85;68.62
64668;BME280;51077;42.716;23.344;2023-05-19T02:41:16;95582.50;;;12.83;68.69
64668;BME280;51077;42.716;23.344;2023-05-19T02:43:41;95589.28;;;12.82;68.95
64668;BME280;51077;42.716;23.344;2023-05-19T02:46:06;95585.78;;;12.82;68.75
64668;BME280;51077;42.716;23.344;2023-05-19T02:48:32;95596.59;;;12.80;68.96
64668;BME280;51077;42.716;23.344;2023-05-19T02:50:57;95590.84;;;12.78;69.09
64668;BME280;51077;42.716;23.344;2023-05-19T02:53:23;95587.88;;;12.76;69.02
64668;BME280;51077;42.716;23.344;2023-05-19T02:55:48;95597.38;;;12.75;69.18
64668;BME280;51077;42.716;23.344;2023-05-19T02:58:13;95603.19;;;12.71;69.21
64668;BME280;51077;42.716;23.344;2023-05-19T03:00:39;95605.19;;;12.71;69.15
64668;BME280;51077;42.716;23.344;2023-05-19T03:03:04;95604.44;;;12.70;69.19
64668;BME280;51077;42.716;23.344;2023-05-19T03:05:30;95607.72;;;12.69;69.16
64668;BME280;51077;42.716;23.344;2023-05-19T03:07:55;95612.69;;;12.70;69.27
64668;BME280;51077;42.716;23.344;2023-05-19T03:10:21;95614.22;;;12.71;69.13
64668;BME280;51077;42.716;23.344;2023-05-19T03:12:46;95606.69;;;12.72;69.29
64668;BME280;51077;42.716;23.344;2023-05-19T03:15:11;95607.94;;;12.71;69.13
64668;BME280;51077;42.716;23.344;2023-05-19T03:17:40;95610.19;;;12.72;69.04
64668;BME280;51077;42.716;23.344;2023-05-19T03:20:06;95610.94;;;12.73;69.14
64668;BME280;51077;42.716;23.344;2023-05-19T03:22:32;95607.44;;;12.72;69.13
64668;BME280;51077;42.716;23.344;2023-05-19T03:24:57;95614.94;;;12.72;69.03
64668;BME280;51077;42.716;23.344;2023-05-19T03:27:23;95615.16;;;12.74;68.84
64668;BME280;51077;42.716;23.344;2023-05-19T03:29:48;95613.91;;;12.75;69.15
64668;BME280;51077;42.716;23.344;2023-05-19T03:32:14;95611.38;;;12.77;68.95
64668;BME280;51077;42.716;23.344;2023-05-19T03:34:39;95611.59;;;12.79;68.93
64668;BME280;51077;42.716;23.344;2023-05-19T03:37:05;95609.91;;;12.76;69.01
64668;BME280;51077;42.716;23.344;2023-05-19T03:39:30;95612.88;;;12.78;69.07
64668;BME280;51077;42.716;23.344;2023-05-19T03:41:55;95611.09;;;12.80;68.98
64668;BME280;51077;42.716;23.344;2023-05-19T03:44:21;95610.56;;;12.82;69.03
64668;BME280;51077;42.716;23.344;2023-05-19T03:46:46;95620.03;;;12.87;68.85
64668;BME280;51077;42.716;23.344;2023-05-19T03:49:11;95620.28;;;12.89;68.81
64668;BME280;51077;42.716;23.344;2023-05-19T03:51:38;95617.22;;;12.92;68.79
64668;BME280;51077;42.716;23.344;2023-05-19T03:54:03;95622.66;;;12.98;68.67
64668;BME280;51077;42.716;23.344;2023-05-19T03:56:29;95621.63;;;13.01;68.71
64668;BME280;51077;42.716;23.344;2023-05-19T03:58:55;95622.31;;;13.07;68.76
64668;BME280;51077;42.716;23.344;2023-05-19T04:01:20;95620.75;;;13.12;68.32
64668;BME280;51077;42.716;23.344;2023-05-19T04:03:46;95627.16;;;13.20;68.10
64668;BME280;51077;42.716;23.344;2023-05-19T04:06:11;95631.34;;;13.26;68.17
64668;BME280;51077;42.716;23.344;2023-05-19T04:08:38;95632.50;;;13.37;68.06
64668;BME280;51077;42.716;23.344;2023-05-19T04:11:03;95632.63;;;13.44;67.57
64668;BME280;51077;42.716;23.344;2023-05-19T04:13:31;95636.28;;;13.52;67.32
64668;BME280;51077;42.716;23.344;2023-05-19T04:15:56;95626.38;;;13.63;67.24
64668;BME280;51077;42.716;23.344;2023-05-19T04:18:22;95630.22;;;13.73;66.98
64668;BME280;51077;42.716;23.344;2023-05-19T04:20:47;95635.13;;;13.80;66.71
64668;BME280;51077;42.716;23.344;2023-05-19T04:23:13;95637.72;;;13.91;66.55
64668;BME280;51077;42.716;23.344;2023-05-19T04:25:38;95643.81;;;14.03;66.19
64668;BME280;51077;42.716;23.344;2023-05-19T04:28:05;95640.13;;;14.14;65.97
64668;BME280;51077;42.716;23.344;2023-05-19T04:30:30;95642.50;;;14.23;65.88
64668;BME280;51077;42.716;23.344;2023-05-19T04:32:56;95646.88;;;14.31;65.67
64668;BME280;51077;42.716;23.344;2023-05-19T04:35:22;95644.97;;;14.40;65.50
64668;BME280;51077;42.716;23.344;2023-05-19T04:37:48;95645.34;;;14.49;65.19
64668;BME280;51077;42.716;23.344;2023-05-19T04:40:13;95644.72;;;14.56;65.11
64668;BME280;51077;42.716;23.344;2023-05-19T04:42:40;95647.06;;;14.66;64.90
64668;BME280;51077;42.716;23.344;2023-05-19T04:45:07;95649.09;;;14.78;66.65
64668;BME280;51077;42.716;23.344;2023-05-19T04:47:34;95648.34;;;14.91;66.07
64668;BME280;51077;42.716;23.344;2023-05-19T04:50:03;95649.22;;;14.99;65.06
64668;BME280;51077;42.716;23.344;2023-05-19T04:52:29;95650.38;;;15.04;65.20
64668;BME280;51077;42.716;23.344;2023-05-19T04:54:55;95648.97;;;15.11;64.94
64668;BME280;51077;42.716;23.344;2023-05-19T04:57:20;95658.13;;;15.19;64.90
64668;BME280;51077;42.716;23.344;2023-05-19T04:59:45;95647.72;;;15.25;64.52
64668;BME280;51077;42.716;23.344;2023-05-19T05:02:11;95651.63;;;15.29;64.27
64668;BME280;51077;42.716;23.344;2023-05-19T05:04:37;95657.28;;;15.37;64.22
64668;BME280;51077;42.716;23.344;2023-05-19T05:07:06;95651.06;;;15.44;64.16
64668;BME280;51077;42.716;23.344;2023-05-19T05:09:32;95649.88;;;15.53;64.04
64668;BME280;51077;42.716;23.344;2023-05-19T05:11:57;95656.25;;;15.61;63.83
64668;BME280;51077;42.716;23.344;2023-05-19T05:14:23;95659.56;;;15.73;63.65
64668;BME280;51077;42.716;23.344;2023-05-19T05:16:49;95653.34;;;15.80;63.50
64668;BME280;51077;42.716;23.344;2023-05-19T05:19:14;95655.69;;;15.89;63.21
64668;BME280;51077;42.716;23.344;2023-05-19T05:21:40;95651.16;;;15.99;62.89
64668;BME280;51077;42.716;23.344;2023-05-19T05:24:08;95651.44;;;16.09;62.59
64668;BME280;51077;42.716;23.344;2023-05-19T05:26:34;95647.44;;;16.18;62.54
64668;BME280;51077;42.716;23.344;2023-05-19T05:29:00;95656.38;;;16.24;62.16
64668;BME280;51077;42.716;23.344;2023-05-19T05:31:25;95657.94;;;16.32;61.82
64668;BME280;51077;42.716;23.344;2023-05-19T05:33:51;95652.25;;;16.38;61.65
64668;BME280;51077;42.716;23.344;2023-05-19T05:36:16;95658.59;;;16.46;61.40
64668;BME280;51077;42.716;23.344;2023-05-19T05:38:42;95650.34;;;16.54;60.84
64668;BME280;51077;42.716;23.344;2023-05-19T05:41:07;95653.16;;;16.62;61.01
64668;BME280;51077;42.716;23.344;2023-05-19T05:43:32;95653.22;;;16.69;60.99
64668;BME280;51077;42.716;23.344;2023-05-19T05:45:58;95661.06;;;16.78;60.93
64668;BME280;51077;42.716;23.344;2023-05-19T05:48:24;95660.19;;;16.83;60.62
64668;BME280;51077;42.716;23.344;2023-05-19T05:50:49;95662.28;;;16.91;60.25
64668;BME280;51077;42.716;23.344;2023-05-19T05:53:19;95664.56;;;17.00;60.11
64668;BME280;51077;42.716;23.344;2023-05-19T05:55:46;95660.53;;;17.08;60.14
64668;BME280;51077;42.716;23.344;2023-05-19T05:58:12;95666.88;;;17.17;59.93
64668;BME280;51077;42.716;23.344;2023-05-19T06:00:39;95677.47;;;17.26;59.66
64668;BME280;51077;42.716;23.344;2023-05-19T06:03:08;95681.03;;;17.34;59.52
64668;BME280;51077;42.716;23.344;2023-05-19T06:05:34;95673.47;;;17.42;59.20
64668;BME280;51077;42.716;23.344;2023-05-19T06:08:00;95683.84;;;17.49;59.05
64668;BME280;51077;42.716;23.344;2023-05-19T06:10:27;95682.41;;;17.56;58.72
64668;BME280;51077;42.716;23.344;2023-05-19T06:12:52;95680.59;;;17.66;58.77
64668;BME280;51077;42.716;23.344;2023-05-19T06:15:18;95683.63;;;17.76;58.83
64668;BME280;51077;42.716;23.344;2023-05-19T06:17:43;95682.34;;;17.84;58.57
64668;BME280;51077;42.716;23.344;2023-05-19T06:20:09;95681.47;;;17.90;58.26
64668;BME280;51077;42.716;23.344;2023-05-19T06:22:35;95674.81;;;18.00;57.60
64668;BME280;51077;42.716;23.344;2023-05-19T06:25:01;95685.22;;;18.07;57.24
64668;BME280;51077;42.716;23.344;2023-05-19T06:27:26;95688.19;;;18.17;57.28
64668;BME280;51077;42.716;23.344;2023-05-19T06:29:52;95681.91;;;18.24;57.18
64668;BME280;51077;42.716;23.344;2023-05-19T06:32:18;95682.66;;;18.32;57.23
64668;BME280;51077;42.716;23.344;2023-05-19T06:34:43;95679.53;;;18.44;56.84
64668;BME280;51077;42.716;23.344;2023-05-19T06:37:08;95674.88;;;18.54;56.58
64668;BME280;51077;42.716;23.344;2023-05-19T06:39:34;95681.94;;;18.63;56.18
64668;BME280;51077;42.716;23.344;2023-05-19T06:41:59;95676.59;;;18.72;56.13
64668;BME280;51077;42.716;23.344;2023-05-19T06:44:25;95677.50;;;18.82;55.77
64668;BME280;51077;42.716;23.344;2023-05-19T06:46:50;95689.00;;;18.94;55.75
64668;BME280;51077;42.716;23.344;2023-05-19T06:49:16;95676.00;;;19.04;56.72
64668;BME280;51077;42.716;23.344;2023-05-19T06:51:41;95684.31;;;19.20;57.26
64668;BME280;51077;42.716;23.344;2023-05-19T06:54:07;95690.41;;;19.33;56.63
64668;BME280;51077;42.716;23.344;2023-05-19T06:56:35;95687.41;;;19.47;55.82
64668;BME280;51077;42.716;23.344;2023-05-19T06:59:00;95692.22;;;19.62;55.53
64668;BME280;51077;42.716;23.344;2023-05-19T07:01:26;95691.81;;;19.73;55.01
64668;BME280;51077;42.716;23.344;2023-05-19T07:03:51;95687.28;;;19.85;54.72
64668;BME280;51077;42.716;23.344;2023-05-19T07:06:17;95686.47;;;20.00;54.79
64668;BME280;51077;42.716;23.344;2023-05-19T07:08:42;95695.50;;;20.16;54.60
64668;BME280;51077;42.716;23.344;2023-05-19T07:11:08;95696.13;;;20.31;54.00
64668;BME280;51077;42.716;23.344;2023-05-19T07:13:33;95696.97;;;20.49;53.74
64668;BME280;51077;42.716;23.344;2023-05-19T07:15:59;95698.50;;;20.68;53.57
64668;BME280;51077;42.716;23.344;2023-05-19T07:18:24;95687.59;;;20.87;53.15
64668;BME280;51077;42.716;23.344;2023-05-19T07:20:53;95699.13;;;21.08;52.63
64668;BME280;51077;42.716;23.344;2023-05-19T07:23:18;95702.09;;;21.28;51.92
64668;BME280;51077;42.716;23.344;2023-05-19T07:25:44;95698.19;;;21.48;51.63
64668;BME280;51077;42.716;23.344;2023-05-19T07:28:09;95698.19;;;21.66;51.30
64668;BME280;51077;42.716;23.344;2023-05-19T07:30:34;95702.59;;;21.86;50.55
64668;BME280;51077;42.716;23.344;2023-05-19T07:33:00;95696.66;;;21.99;49.74
64668;BME280;51077;42.716;23.344;2023-05-19T07:35:25;95699.59;;;22.19;49.00
64668;BME280;51077;42.716;23.344;2023-05-19T07:37:51;95697.16;;;22.32;48.18
64668;BME280;51077;42.716;23.344;2023-05-19T07:40:17;95690.44;;;22.45;47.91
64668;BME280;51077;42.716;23.344;2023-05-19T07:42:42;95696.38;;;22.59;47.59
64668;BME280;51077;42.716;23.344;2023-05-19T07:45:11;95695.44;;;22.74;47.30
64668;BME280;51077;42.716;23.344;2023-05-19T07:47:39;95694.63;;;22.91;46.40
64668;BME280;51077;42.716;23.344;2023-05-19T07:50:05;95689.06;;;23.00;46.52
64668;BME280;51077;42.716;23.344;2023-05-19T07:52:31;95697.03;;;23.14;45.82
64668;BME280;51077;42.716;23.344;2023-05-19T07:54:57;95687.91;;;23.23;46.30
64668;BME280;51077;42.716;23.344;2023-05-19T07:57:23;95682.31;;;23.32;46.30
64668;BME280;51077;42.716;23.344;2023-05-19T07:59:49;95696.19;;;23.50;45.65
64668;BME280;51077;42.716;23.344;2023-05-19T08:02:14;95685.47;;;23.66;45.89
64668;BME280;51077;42.716;23.344;2023-05-19T08:04:40;95686.94;;;23.86;45.28
64668;BME280;51077;42.716;23.344;2023-05-19T08:07:05;95695.31;;;24.05;44.91
64668;BME280;51077;42.716;23.344;2023-05-19T08:09:31;95693.78;;;24.24;44.49
64668;BME280;51077;42.716;23.344;2023-05-19T08:11:59;95686.94;;;24.46;44.11
64668;BME280;51077;42.716;23.344;2023-05-19T08:14:25;95691.63;;;24.63;43.80
64668;BME280;51077;42.716;23.344;2023-05-19T08:16:51;95685.06;;;24.80;43.33
64668;BME280;51077;42.716;23.344;2023-05-19T08:19:19;95693.25;;;24.97;43.28
64668;BME280;51077;42.716;23.344;2023-05-19T08:21:44;95688.47;;;25.10;43.28
64668;BME280;51077;42.716;23.344;2023-05-19T08:24:10;95687.94;;;25.23;42.98
64668;BME280;51077;42.716;23.344;2023-05-19T08:26:35;95692.31;;;25.36;43.02
64668;BME280;51077;42.716;23.344;2023-05-19T08:29:01;95685.53;;;25.50;41.95
64668;BME280;51077;42.716;23.344;2023-05-19T08:31:26;95682.78;;;25.62;42.36
64668;BME280;51077;42.716;23.344;2023-05-19T08:33:52;95683.25;;;25.80;42.14
64668;BME280;51077;42.716;23.344;2023-05-19T08:36:17;95677.19;;;25.95;41.37
64668;BME280;51077;42.716;23.344;2023-05-19T08:38:43;95674.41;;;26.07;42.57
64668;BME280;51077;42.716;23.344;2023-05-19T08:41:08;95676.03;;;26.22;42.40
64668;BME280;51077;42.716;23.344;2023-05-19T08:43:34;95674.97;;;26.39;40.48
64668;BME280;51077;42.716;23.344;2023-05-19T08:46:02;95679.78;;;26.48;40.35
64668;BME280;51077;42.716;23.344;2023-05-19T08:48:28;95674.41;;;26.52;39.84
64668;BME280;51077;42.716;23.344;2023-05-19T08:51:22;95678.47;;;26.61;40.09
64668;BME280;51077;42.716;23.344;2023-05-19T08:53:57;95677.72;;;26.72;39.16
64668;BME280;51077;42.716;23.344;2023-05-19T08:56:27;95675.63;;;26.84;39.55
64668;BME280;51077;42.716;23.344;2023-05-19T08:58:54;95681.03;;;26.92;40.49
64668;BME280;51077;42.716;23.344;2023-05-19T09:01:24;95676.59;;;27.00;42.06
64668;BME280;51077;42.716;23.344;2023-05-19T09:03:50;95664.09;;;27.15;39.73
64668;BME280;51077;42.716;23.344;2023-05-19T09:06:16;95671.34;;;27.18;39.21
64668;BME280;51077;42.716;23.344;2023-05-19T09:08:42;95665.16;;;27.34;40.34
64668;BME280;51077;42.716;23.344;2023-05-19T09:11:09;95659.75;;;27.49;41.61
64668;BME280;51077;42.716;23.344;2023-05-19T09:13:37;95659.56;;;27.59;38.51
64668;BME280;51077;42.716;23.344;2023-05-19T09:16:03;95659.41;;;27.69;39.91
64668;BME280;51077;42.716;23.344;2023-05-19T09:18:29;95652.16;;;27.77;37.79
64668;BME280;51077;42.716;23.344;2023-05-19T09:20:59;95648.56;;;27.89;38.21
64668;BME280;51077;42.716;23.344;2023-05-19T09:23:27;95651.34;;;28.00;38.10
64668;BME280;51077;42.716;23.344;2023-05-19T09:25:54;95646.03;;;28.06;38.69
64668;BME280;51077;42.716;23.344;2023-05-19T09:28:28;95644.88;;;28.12;38.53
64668;BME280;51077;42.716;23.344;2023-05-19T09:31:02;95646.56;;;28.17;39.62
64668;BME280;51077;42.716;23.344;2023-05-19T09:33:28;95642.19;;;28.14;38.20
64668;BME280;51077;42.716;23.344;2023-05-19T09:35:55;95641.50;;;28.27;39.03
64668;BME280;51077;42.716;23.344;2023-05-19T09:38:23;95636.06;;;28.31;39.26
64668;BME280;51077;42.716;23.344;2023-05-19T09:40:48;95639.78;;;28.47;38.89
64668;BME280;51077;42.716;23.344;2023-05-19T09:43:14;95638.31;;;28.46;36.82
64668;BME280;51077;42.716;23.344;2023-05-19T09:45:40;95641.69;;;28.70;38.92
64668;BME280;51077;42.716;23.344;2023-05-19T09:48:09;95637.81;;;28.91;36.63
64668;BME280;51077;42.716;23.344;2023-05-19T09:50:35;95627.66;;;28.86;36.20
64668;BME280;51077;42.716;23.344;2023-05-19T09:53:01;95627.97;;;28.92;36.57
64668;BME280;51077;42.716;23.344;2023-05-19T09:55:28;95632.56;;;29.27;34.63
64668;BME280;51077;42.716;23.344;2023-05-19T09:57:57;95629.19;;;29.44;34.01
64668;BME280;51077;42.716;23.344;2023-05-19T10:00:25;95632.94;;;29.92;32.38
64668;BME280;51077;42.716;23.344;2023-05-19T10:02:51;95624.31;;;29.74;31.97
64668;BME280;51077;42.716;23.344;2023-05-19T10:05:20;95623.28;;;30.13;30.79
64668;BME280;51077;42.716;23.344;2023-05-19T10:07:49;95616.56;;;29.91;31.52
64668;BME280;51077;42.716;23.344;2023-05-19T10:10:16;95618.50;;;30.32;30.18
64668;BME280;51077;42.716;23.344;2023-05-19T10:12:42;95623.72;;;30.53;29.37
64668;BME280;51077;42.716;23.344;2023-05-19T10:15:14;95617.28;;;30.21;29.61
64668;BME280;51077;42.716;23.344;2023-05-19T10:17:41;95614.31;;;30.03;30.82
64668;BME280;51077;42.716;23.344;2023-05-19T10:20:11;95609.19;;;30.45;30.12
64668;BME280;51077;42.716;23.344;2023-05-19T10:45:01;95603.97;;;30.39;30.38
64668;BME280;51077;42.716;23.344;2023-05-19T10:47:32;95598.00;;;30.65;30.12
64668;BME280;51077;42.716;23.344;2023-05-19T10:50:03;95602.31;;;30.82;30.15
64668;BME280;51077;42.716;23.344;2023-05-19T10:52:35;95586.53;;;30.61;30.30
64668;BME280;51077;42.716;23.344;2023-05-19T10:55:01;95593.34;;;30.55;30.25
64668;BME280;51077;42.716;23.344;2023-05-19T10:57:29;95591.44;;;30.92;29.83
64668;BME280;51077;42.716;23.344;2023-05-19T10:59:58;95585.44;;;31.01;29.53
64668;BME280;51077;42.716;23.344;2023-05-19T11:05:15;95587.16;;;31.78;28.16
64668;BME280;51077;42.716;23.344;2023-05-19T11:07:56;95588.47;;;31.93;27.98
64668;BME280;51077;42.716;23.344;2023-05-19T11:10:26;95582.72;;;31.91;27.90
64668;BME280;51077;42.716;23.344;2023-05-19T11:12:51;95576.75;;;32.20;27.66
64668;BME280;51077;42.716;23.344;2023-05-19T11:15:16;95576.13;;;32.42;26.40
64668;BME280;51077;42.716;23.344;2023-05-19T11:17:46;95569.09;;;32.25;27.07
64668;BME280;51077;42.716;23.344;2023-05-19T11:20:24;95570.09;;;32.51;26.09
64668;BME280;51077;42.716;23.344;2023-05-19T11:23:09;95570.25;;;32.75;26.08
64668;BME280;51077;42.716;23.344;2023-05-19T11:25:44;95576.28;;;32.46;26.23
64668;BME280;51077;42.716;23.344;2023-05-19T11:28:11;95577.00;;;32.09;26.76
64668;BME280;51077;42.716;23.344;2023-05-19T11:30:40;95583.34;;;31.71;26.74
64668;BME280;51077;42.716;23.344;2023-05-19T11:33:06;95581.06;;;31.32;26.38
64668;BME280;51077;42.716;23.344;2023-05-19T11:35:32;95576.25;;;31.19;26.96
64668;BME280;51077;42.716;23.344;2023-05-19T11:37:58;95577.75;;;31.38;26.78
64668;BME280;51077;42.716;23.344;2023-05-19T11:40:24;95561.25;;;31.16;26.77
64668;BME280;51077;42.716;23.344;2023-05-19T11:42:49;95569.72;;;30.98;27.25
64668;BME280;51077;42.716;23.344;2023-05-19T11:45:15;95571.09;;;30.97;27.31
64668;BME280;51077;42.716;23.344;2023-05-19T11:47:40;95575.09;;;30.59;26.88
64668;BME280;51077;42.716;23.344;2023-05-19T11:50:06;95575.59;;;30.08;27.89
64668;BME280;51077;42.716;23.344;2023-05-19T11:52:32;95567.78;;;29.61;28.35
64668;BME280;51077;42.716;23.344;2023-05-19T11:55:00;95566.09;;;29.12;28.58
64668;BME280;51077;42.716;23.344;2023-05-19T11:57:26;95565.19;;;28.80;28.42
64668;BME280;51077;42.716;23.344;2023-05-19T11:59:51;95582.53;;;28.33;29.07
64668;BME280;51077;42.716;23.344;2023-05-19T12:02:22;95589.13;;;27.98;29.54
64668;BME280;51077;42.716;23.344;2023-05-19T12:04:52;95631.00;;;27.65;30.74
64668;BME280;51077;42.716;23.344;2023-05-19T12:07:20;95621.00;;;27.13;31.13
64668;BME280;51077;42.716;23.344;2023-05-19T12:09:48;95644.91;;;26.53;31.91
64668;BME280;51077;42.716;23.344;2023-05-19T12:12:20;95632.78;;;25.94;32.04
64668;BME280;51077;42.716;23.344;2023-05-19T12:14:47;95649.81;;;25.41;32.79
64668;BME280;51077;42.716;23.344;2023-05-19T12:17:15;95647.38;;;25.04;33.49
64668;BME280;51077;42.716;23.344;2023-05-19T12:19:45;95641.06;;;24.73;34.08
64668;BME280;51077;42.716;23.344;2023-05-19T12:22:12;95641.78;;;24.42;34.63
64668;BME280;51077;42.716;23.344;2023-05-19T12:24:38;95640.84;;;24.08;34.86
64668;BME280;51077;42.716;23.344;2023-05-19T12:29:39;95645.19;;;23.61;35.71
64668;BME280;51077;42.716;23.344;2023-05-19T12:32:08;95626.91;;;23.41;36.04
64668;BME280;51077;42.716;23.344;2023-05-19T12:34:37;95650.03;;;23.22;37.15
64668;BME280;51077;42.716;23.344;2023-05-19T12:37:06;95639.41;;;23.11;37.34
64668;BME280;51077;42.716;23.344;2023-05-19T12:39:32;95630.09;;;22.98;38.03
64668;BME280;51077;42.716;23.344;2023-05-19T12:42:07;95611.66;;;22.86;38.17
64668;BME280;51077;42.716;23.344;2023-05-19T12:44:46;95649.34;;;22.84;38.05
64668;BME280;51077;42.716;23.344;2023-05-19T12:47:13;95614.13;;;22.72;38.13
64668;BME280;51077;42.716;23.344;2023-05-19T12:49:55;95613.81;;;22.68;38.35
64668;BME280;51077;42.716;23.344;2023-05-19T12:52:26;95608.94;;;22.58;38.68
64668;BME280;51077;42.716;23.344;2023-05-19T12:55:05;95599.81;;;22.58;38.73
64668;BME280;51077;42.716;23.344;2023-05-19T12:57:35;95602.91;;;22.62;38.46
64668;BME280;51077;42.716;23.344;2023-05-19T13:00:02;95584.38;;;22.67;38.48
64668;BME280;51077;42.716;23.344;2023-05-19T13:02:32;95602.91;;;22.72;38.43
64668;BME280;51077;42.716;23.344;2023-05-19T13:04:58;95602.56;;;22.95;37.92
64668;BME280;51077;42.716;23.344;2023-05-19T13:07:23;95592.41;;;22.99;37.81
64668;BME280;51077;42.716;23.344;2023-05-19T13:09:49;95585.19;;;23.06;37.61
64668;BME280;51077;42.716;23.344;2023-05-19T13:12:14;95579.16;;;23.00;37.75
64668;BME280;51077;42.716;23.344;2023-05-19T13:14:39;95582.06;;;22.92;37.87
64668;BME280;51077;42.716;23.344;2023-05-19T13:17:07;95593.38;;;22.84;37.86
64668;BME280;51077;42.716;23.344;2023-05-19T13:19:33;95578.34;;;22.80;37.78
64668;BME280;51077;42.716;23.344;2023-05-19T13:21:58;95575.84;;;22.84;37.67
64668;BME280;51077;42.716;23.344;2023-05-19T13:24:23;95583.38;;;22.81;37.77
64668;BME280;51077;42.716;23.344;2023-05-19T13:26:49;95579.38;;;22.75;37.60
64668;BME280;51077;42.716;23.344;2023-05-19T13:29:14;95571.16;;;22.77;37.85
64668;BME280;51077;42.716;23.344;2023-05-19T13:31:40;95574.06;;;22.79;37.77